sensor_id;sensor_type;location;lat;lon;timestamp;P1;durP1;ratioP1;P2;durP2;ratioP2
35592;SDS011;64447;52.140;5.602;2023-07-20T04:51:59;6.70;;;6.00;;
35592;SDS011;64447;52.140;5.602;2023-07-20T07:30:00;3.13;;;1.67;;
35592;SDS011;64447;52.140;5.602;2023-07-20T07:32:26;2.80;;;1.53;;
35592;SDS011;64447;52.140;5.602;2023-07-20T07:34:51;2.38;;;1.50;;
35592;SDS011;64447;52.140;5.602;2023-07-20T07:37:17;2.30;;;1.50;;
35592;SDS011;64447;52.140;5.602;2023-07-20T07:39:44;1.98;;;1.48;;
35592;SDS011;64447;52.140;5.602;2023-07-20T07:42:11;1.40;;;1.30;;
35592;SDS011;64447;52.140;5.602;2023-07-20T07:44:37;2.13;;;1.40;;
35592;SDS011;64447;52.140;5.602;2023-07-20T07:47:03;1.48;;;1.30;;
35592;SDS011;64447;52.140;5.602;2023-07-20T07:49:29;1.55;;;1.30;;
35592;SDS011;64447;52.140;5.602;2023-07-20T07:51:54;1.70;;;1.40;;
35592;SDS011;64447;52.140;5.602;2023-07-20T07:54:20;1.92;;;1.40;;
35592;SDS011;64447;52.140;5.602;2023-07-20T07:56:45;2.40;;;1.63;;
35592;SDS011;64447;52.140;5.602;2023-07-20T07:59:11;3.47;;;1.73;;
35592;SDS011;64447;52.140;5.602;2023-07-20T08:01:36;2.88;;;1.45;;
35592;SDS011;64447;52.140;5.602;2023-07-20T08:04:02;1.60;;;1.50;;
35592;SDS011;64447;52.140;5.602;2023-07-20T08:06:28;3.80;;;1.52;;
35592;SDS011;64447;52.140;5.602;2023-07-20T08:08:54;3.63;;;1.50;;
35592;SDS011;64447;52.140;5.602;2023-07-20T08:11:20;3.03;;;1.25;;
35592;SDS011;64447;52.140;5.602;2023-07-20T08:13:45;1.33;;;1.23;;
35592;SDS011;64447;52.140;5.602;2023-07-20T08:16:11;3.95;;;1.13;;
35592;SDS011;64447;52.140;5.602;2023-07-20T08:18:36;2.83;;;1.33;;
35592;SDS011;64447;52.140;5.602;2023-07-20T08:21:02;1.75;;;0.90;;
35592;SDS011;64447;52.140;5.602;2023-07-20T08:23:28;1.45;;;0.90;;
35592;SDS011;64447;52.140;5.602;2023-07-20T08:25:54;1.52;;;1.20;;
35592;SDS011;64447;52.140;5.602;2023-07-20T08:28:19;1.77;;;1.10;;
35592;SDS011;64447;52.140;5.602;2023-07-20T08:30:46;1.98;;;1.08;;
35592;SDS011;64447;52.140;5.602;2023-07-20T08:33:13;1.83;;;0.90;;
35592;SDS011;64447;52.140;5.602;2023-07-20T08:35:39;1.10;;;1.00;;
35592;SDS011;64447;52.140;5.602;2023-07-20T08:38:05;1.40;;;0.95;;
35592;SDS011;64447;52.140;5.602;2023-07-20T08:40:32;1.00;;;0.90;;
35592;SDS011;64447;52.140;5.602;2023-07-20T08:42:59;0.80;;;0.80;;
35592;SDS011;64447;52.140;5.602;2023-07-20T08:45:25;1.10;;;0.70;;
35592;SDS011;64447;52.140;5.602;2023-07-20T08:47:56;1.95;;;1.13;;
35592;SDS011;64447;52.140;5.602;2023-07-20T08:50:25;0.60;;;0.60;;
35592;SDS011;64447;52.140;5.602;2023-07-20T08:52:52;1.13;;;0.85;;
35592;SDS011;64447;52.140;5.602;2023-07-20T08:55:19;1.83;;;0.90;;
35592;SDS011;64447;52.140;5.602;2023-07-20T08:57:47;0.70;;;0.70;;
35592;SDS011;64447;52.140;5.602;2023-07-20T09:00:15;0.85;;;0.80;;
35592;SDS011;64447;52.140;5.602;2023-07-20T09:02:42;0.90;;;0.90;;
35592;SDS011;64447;52.140;5.602;2023-07-20T09:05:11;1.17;;;1.08;;
35592;SDS011;64447;52.140;5.602;2023-07-20T09:07:39;1.00;;;0.90;;
35592;SDS011;64447;52.140;5.602;2023-07-20T09:10:06;1.73;;;1.00;;
35592;SDS011;64447;52.140;5.602;2023-07-20T09:12:35;1.38;;;1.00;;
35592;SDS011;64447;52.140;5.602;2023-07-20T09:15:03;1.20;;;0.93;;
35592;SDS011;64447;52.140;5.602;2023-07-20T09:17:29;3.10;;;1.00;;
35592;SDS011;64447;52.140;5.602;2023-07-20T09:19:55;1.30;;;1.02;;
35592;SDS011;64447;52.140;5.602;2023-07-20T09:22:21;2.38;;;1.15;;
35592;SDS011;64447;52.140;5.602;2023-07-20T09:24:46;1.85;;;1.15;;
35592;SDS011;64447;52.140;5.602;2023-07-20T09:27:12;0.90;;;0.90;;
35592;SDS011;64447;52.140;5.602;2023-07-20T09:32:13;2.22;;;1.25;;
35592;SDS011;64447;52.140;5.602;2023-07-20T10:33:48;1.30;;;1.10;;
35592;SDS011;64447;52.140;5.602;2023-07-20T10:36:15;1.25;;;1.10;;
35592;SDS011;64447;52.140;5.602;2023-07-20T10:38:42;1.65;;;1.30;;
35592;SDS011;64447;52.140;5.602;2023-07-20T10:43:46;0.80;;;0.80;;
35592;SDS011;64447;52.140;5.602;2023-07-20T10:46:13;1.27;;;0.90;;
35592;SDS011;64447;52.140;5.602;2023-07-20T10:56:21;1.58;;;1.00;;
35592;SDS011;64447;52.140;5.602;2023-07-20T10:58:48;2.40;;;1.20;;
35592;SDS011;64447;52.140;5.602;2023-07-20T11:01:15;1.45;;;0.93;;
35592;SDS011;64447;52.140;5.602;2023-07-20T11:03:42;1.02;;;0.80;;
35592;SDS011;64447;52.140;5.602;2023-07-20T11:08:56;0.70;;;0.70;;
35592;SDS011;64447;52.140;5.602;2023-07-20T11:11:31;0.80;;;0.80;;
35592;SDS011;64447;52.140;5.602;2023-07-20T11:14:02;1.02;;;0.93;;
35592;SDS011;64447;52.140;5.602;2023-07-20T11:16:47;0.80;;;0.80;;
35592;SDS011;64447;52.140;5.602;2023-07-20T11:21:46;1.45;;;1.08;;
35592;SDS011;64447;52.140;5.602;2023-07-20T11:24:14;2.35;;;0.90;;
35592;SDS011;64447;52.140;5.602;2023-07-20T11:26:41;1.17;;;0.80;;
35592;SDS011;64447;52.140;5.602;2023-07-20T11:29:11;2.25;;;1.02;;
35592;SDS011;64447;52.140;5.602;2023-07-20T11:31:38;0.63;;;0.63;;
35592;SDS011;64447;52.140;5.602;2023-07-20T11:34:04;0.73;;;0.70;;
35592;SDS011;64447;52.140;5.602;2023-07-20T11:36:30;1.60;;;0.95;;
35592;SDS011;64447;52.140;5.602;2023-07-20T11:38:56;3.45;;;0.90;;
35592;SDS011;64447;52.140;5.602;2023-07-20T11:41:24;0.80;;;0.70;;
35592;SDS011;64447;52.140;5.602;2023-07-20T11:43:51;0.70;;;0.50;;
35592;SDS011;64447;52.140;5.602;2023-07-20T11:46:16;1.30;;;0.70;;
35592;SDS011;64447;52.140;5.602;2023-07-20T11:48:42;0.70;;;0.70;;
35592;SDS011;64447;52.140;5.602;2023-07-20T11:51:15;1.02;;;0.90;;
35592;SDS011;64447;52.140;5.602;2023-07-20T11:53:42;1.10;;;0.60;;
35592;SDS011;64447;52.140;5.602;2023-07-20T11:56:11;2.50;;;0.60;;
35592;SDS011;64447;52.140;5.602;2023-07-20T11:58:41;1.75;;;0.82;;
35592;SDS011;64447;52.140;5.602;2023-07-20T12:01:08;0.60;;;0.60;;
35592;SDS011;64447;52.140;5.602;2023-07-20T12:03:34;1.10;;;0.70;;
35592;SDS011;64447;52.140;5.602;2023-07-20T12:06:09;1.10;;;0.80;;
35592;SDS011;64447;52.140;5.602;2023-07-20T12:08:39;1.60;;;0.80;;
35592;SDS011;64447;52.140;5.602;2023-07-20T12:11:06;0.70;;;0.70;;
35592;SDS011;64447;52.140;5.602;2023-07-20T12:13:41;1.02;;;0.85;;
35592;SDS011;64447;52.140;5.602;2023-07-20T12:16:15;0.80;;;0.70;;
35592;SDS011;64447;52.140;5.602;2023-07-20T12:18:42;2.47;;;0.80;;
35592;SDS011;64447;52.140;5.602;2023-07-20T12:21:08;1.58;;;0.60;;
35592;SDS011;64447;52.140;5.602;2023-07-20T12:23:35;1.58;;;0.85;;
35592;SDS011;64447;52.140;5.602;2023-07-20T12:26:08;0.88;;;0.80;;
35592;SDS011;64447;52.140;5.602;2023-07-20T12:28:39;1.00;;;0.90;;
35592;SDS011;64447;52.140;5.602;2023-07-20T12:31:06;1.75;;;0.70;;
35592;SDS011;64447;52.140;5.602;2023-07-20T12:33:32;1.67;;;0.63;;
35592;SDS011;64447;52.140;5.602;2023-07-20T12:35:58;5.25;;;1.00;;
35592;SDS011;64447;52.140;5.602;2023-07-20T12:38:25;0.90;;;0.90;;
35592;SDS011;64447;52.140;5.602;2023-07-20T12:40:52;1.13;;;0.70;;
35592;SDS011;64447;52.140;5.602;2023-07-20T12:43:19;1.50;;;0.90;;
35592;SDS011;64447;52.140;5.602;2023-07-20T12:45:45;1.02;;;1.00;;
35592;SDS011;64447;52.140;5.602;2023-07-20T12:48:11;0.90;;;0.75;;
35592;SDS011;64447;52.140;5.602;2023-07-20T12:50:37;0.75;;;0.73;;
35592;SDS011;64447;52.140;5.602;2023-07-20T12:53:02;0.87;;;0.83;;
35592;SDS011;64447;52.140;5.602;2023-07-20T12:55:28;0.50;;;0.50;;
35592;SDS011;64447;52.140;5.602;2023-07-20T12:57:54;1.00;;;0.77;;
35592;SDS011;64447;52.140;5.602;2023-07-20T13:34:32;4.13;;;0.90;;
35592;SDS011;64447;52.140;5.602;2023-07-20T13:36:57;0.82;;;0.73;;
